createdAt,value
2019-04-29T00:00:32.179Z,5.10
2019-04-29T00:01:32.202Z,5.40
2019-04-29T00:02:32.169Z,5.50
2019-04-29T00:03:32.172Z,5.40
2019-04-29T00:04:32.134Z,5.50
2019-04-29T00:05:32.130Z,6.10
2019-04-29T00:06:32.138Z,5.80
2019-04-29T00:07:32.116Z,5.80
2019-04-29T00:08:32.114Z,5.60
2019-04-29T00:09:32.133Z,5.60
2019-04-29T00:10:32.074Z,5.70
2019-04-29T00:11:32.113Z,5.50
2019-04-29T00:12:32.100Z,5.60
2019-04-29T00:13:32.033Z,5.90
2019-04-29T00:14:32.065Z,5.60
2019-04-29T00:15:32.021Z,5.80
2019-04-29T00:16:32.049Z,5.90
2019-04-29T00:17:31.997Z,5.60
2019-04-29T00:18:31.977Z,5.30
2019-04-29T00:19:32.024Z,5.60
2019-04-29T00:20:31.959Z,5.40
2019-04-29T00:21:31.944Z,5.90
2019-04-29T00:22:31.995Z,13.40
2019-04-29T00:23:31.920Z,9.00
2019-04-29T00:24:31.912Z,7.20
2019-04-29T00:25:31.914Z,6.80
2019-04-29T00:26:31.910Z,5.80
2019-04-29T00:27:31.893Z,5.30
2019-04-29T00:28:31.865Z,5.50
2019-04-29T00:29:31.862Z,5.70
2019-04-29T00:30:31.880Z,5.60
2019-04-29T00:31:31.849Z,5.60
2019-04-29T00:32:31.849Z,6.00
2019-04-29T00:33:31.817Z,5.40
2019-04-29T00:34:31.800Z,6.00
2019-04-29T00:35:31.787Z,6.20
2019-04-29T00:36:31.785Z,6.10
2019-04-29T00:37:31.807Z,6.20
2019-04-29T00:38:31.759Z,6.10
2019-04-29T00:39:31.735Z,6.60
2019-04-29T00:40:31.768Z,6.00
2019-04-29T00:41:31.720Z,6.30
2019-04-29T00:42:31.741Z,6.20
2019-04-29T00:43:31.700Z,6.00
2019-04-29T00:44:31.693Z,6.20
2019-04-29T00:45:31.696Z,6.10
2019-04-29T00:46:31.664Z,6.10
2019-04-29T00:47:31.680Z,6.30
2019-04-29T00:48:31.649Z,6.00
2019-04-29T00:49:31.771Z,6.30
2019-04-29T00:50:31.622Z,6.40
2019-04-29T00:51:31.734Z,6.00
2019-04-29T00:52:31.624Z,5.70
2019-04-29T00:53:31.625Z,5.70
2019-04-29T00:54:31.584Z,6.40
2019-04-29T00:55:31.565Z,5.90
2019-04-29T00:56:31.603Z,6.10
2019-04-29T00:57:31.572Z,6.20
2019-04-29T00:58:31.540Z,6.10
2019-04-29T00:59:31.522Z,6.30
2019-04-29T01:00:31.545Z,5.90
2019-04-29T01:01:31.499Z,6.00
2019-04-29T01:02:31.556Z,5.70
2019-04-29T01:03:31.472Z,5.70
2019-04-29T01:04:31.474Z,5.60
2019-04-29T01:05:31.468Z,6.00
2019-04-29T01:06:31.440Z,6.40
2019-04-29T01:07:31.493Z,6.30
2019-04-29T01:08:31.427Z,5.80
2019-04-29T01:09:31.407Z,6.20
2019-04-29T01:10:31.401Z,6.00
2019-04-29T01:11:31.381Z,5.70
2019-04-29T01:12:31.430Z,6.20
2019-04-29T01:13:31.381Z,5.90
2019-04-29T01:14:31.350Z,6.30
2019-04-29T01:15:31.338Z,6.10
2019-04-29T01:16:31.321Z,6.20
2019-04-29T01:17:31.316Z,6.60
2019-04-29T01:18:31.335Z,6.20
2019-04-29T01:19:31.312Z,6.10
2019-04-29T01:20:31.276Z,6.60
2019-04-29T01:21:31.278Z,6.50
2019-04-29T01:22:31.317Z,6.80
2019-04-29T01:23:31.274Z,6.70
2019-04-29T01:24:31.231Z,6.40
2019-04-29T01:25:31.236Z,6.50
2019-04-29T01:26:31.262Z,6.60
2019-04-29T01:27:31.191Z,6.60
2019-04-29T01:28:31.218Z,7.20
2019-04-29T01:29:31.178Z,7.10
2019-04-29T01:30:31.158Z,6.60
2019-04-29T01:31:31.166Z,6.80
2019-04-29T01:32:31.148Z,7.00
2019-04-29T01:33:31.166Z,7.00
2019-04-29T01:34:31.124Z,6.10
2019-04-29T01:35:31.121Z,6.60
2019-04-29T01:36:31.102Z,7.00
2019-04-29T01:37:31.091Z,7.10
2019-04-29T01:38:31.092Z,7.10
2019-04-29T01:39:31.109Z,6.80
2019-04-29T01:40:31.049Z,6.70
2019-04-29T01:41:31.037Z,7.00
2019-04-29T01:42:31.035Z,7.30
2019-04-29T01:43:31.041Z,7.10
2019-04-29T01:44:31.005Z,7.10
2019-04-29T01:45:31.020Z,6.60
2019-04-29T01:46:30.978Z,7.50
2019-04-29T01:47:30.967Z,7.20
2019-04-29T01:48:30.997Z,7.30
2019-04-29T01:49:30.985Z,7.50
2019-04-29T01:50:30.997Z,7.70
2019-04-29T01:51:30.917Z,7.60
2019-04-29T01:52:30.960Z,7.80
2019-04-29T01:53:30.922Z,8.00
2019-04-29T01:54:30.964Z,7.70
2019-04-29T01:55:30.874Z,7.50
2019-04-29T01:56:30.867Z,7.70
2019-04-29T01:57:30.863Z,7.90
2019-04-29T01:58:30.870Z,8.20
2019-04-29T01:59:30.864Z,7.80
2019-04-29T02:00:30.829Z,8.70
2019-04-29T02:01:30.843Z,8.60
2019-04-29T02:02:30.797Z,8.60
2019-04-29T02:03:30.828Z,8.10
2019-04-29T02:04:30.768Z,8.60
2019-04-29T02:05:30.764Z,8.30
2019-04-29T02:06:30.745Z,8.50
2019-04-29T02:07:30.733Z,8.30
2019-04-29T02:08:30.747Z,8.30
2019-04-29T02:09:30.747Z,8.50
2019-04-29T02:10:30.705Z,8.80
2019-04-29T02:11:30.702Z,9.00
2019-04-29T02:12:30.683Z,8.90
2019-04-29T02:13:30.669Z,9.40
2019-04-29T02:14:30.685Z,8.70
2019-04-29T02:15:30.672Z,9.50
2019-04-29T02:16:30.639Z,9.50
2019-04-29T02:17:30.642Z,9.80
2019-04-29T02:18:30.608Z,10.10
2019-04-29T02:19:30.881Z,10.10
2019-04-29T02:20:30.589Z,15.80
2019-04-29T02:21:30.576Z,10.50
2019-04-29T02:22:30.587Z,9.70
2019-04-29T02:23:30.557Z,9.50
2019-04-29T02:24:30.567Z,10.30
2019-04-29T02:25:30.557Z,9.50
2019-04-29T02:26:30.523Z,9.30
2019-04-29T02:27:30.519Z,9.70
2019-04-29T02:28:30.498Z,10.00
2019-04-29T02:29:30.541Z,9.20
2019-04-29T02:30:30.482Z,9.70
2019-04-29T02:31:30.476Z,9.50
2019-04-29T02:32:30.460Z,9.90
2019-04-29T02:33:30.448Z,9.80
2019-04-29T02:34:30.500Z,10.00
2019-04-29T02:35:30.413Z,10.40
2019-04-29T02:36:30.434Z,9.90
2019-04-29T02:37:30.412Z,9.80
2019-04-29T02:38:30.389Z,10.10
2019-04-29T02:39:30.405Z,10.40
2019-04-29T02:40:30.357Z,10.30
2019-04-29T02:41:30.365Z,10.50
2019-04-29T02:42:30.365Z,10.50
2019-04-29T02:43:30.324Z,10.30
2019-04-29T02:44:30.342Z,11.20
2019-04-29T02:45:30.310Z,10.20
2019-04-29T02:46:30.295Z,10.20
2019-04-29T02:47:30.416Z,9.90
2019-04-29T02:48:34.411Z,10.70
2019-04-29T02:49:30.284Z,10.40
2019-04-29T02:50:30.259Z,10.80
2019-04-29T02:51:30.231Z,10.10
2019-04-29T02:52:30.258Z,10.10
2019-04-29T02:53:30.220Z,10.70
2019-04-29T02:54:30.241Z,10.30
2019-04-29T02:55:30.222Z,10.30
2019-04-29T02:56:30.190Z,9.90
2019-04-29T02:57:30.164Z,10.50
2019-04-29T02:58:30.152Z,10.20
2019-04-29T02:59:30.173Z,10.70
2019-04-29T03:00:30.161Z,10.30
2019-04-29T03:01:30.160Z,10.50
2019-04-29T03:02:30.116Z,11.10
2019-04-29T03:03:30.099Z,11.10
2019-04-29T03:04:30.087Z,10.80
2019-04-29T03:05:30.127Z,10.60
2019-04-29T03:06:30.083Z,10.50
2019-04-29T03:07:31.017Z,10.90
2019-04-29T03:08:30.052Z,11.10
2019-04-29T03:09:30.048Z,11.10
2019-04-29T03:10:30.082Z,11.00
2019-04-29T03:11:30.018Z,11.00
2019-04-29T03:12:30.034Z,11.00
2019-04-29T03:13:30.005Z,11.90
2019-04-29T03:14:29.971Z,11.50
2019-04-29T03:15:30.121Z,11.60
2019-04-29T03:16:29.948Z,11.60
2019-04-29T03:17:29.937Z,12.00
2019-04-29T03:18:29.940Z,11.60
2019-04-29T03:19:29.921Z,11.80
2019-04-29T03:20:30.009Z,11.80
2019-04-29T03:21:29.892Z,11.40
2019-04-29T03:22:29.887Z,12.00
2019-04-29T03:23:29.928Z,11.10
2019-04-29T03:24:29.886Z,11.80
2019-04-29T03:25:29.858Z,11.90
2019-04-29T03:26:30.200Z,12.10
2019-04-29T03:27:29.859Z,12.20
2019-04-29T03:28:29.810Z,11.60
2019-04-29T03:29:29.800Z,11.50
2019-04-29T03:30:29.791Z,12.00
2019-04-29T03:31:29.878Z,11.50
2019-04-29T03:32:29.803Z,12.30
2019-04-29T03:33:29.769Z,12.40
2019-04-29T03:34:29.781Z,12.70
2019-04-29T03:35:29.750Z,11.90
2019-04-29T03:36:29.734Z,13.00
2019-04-29T03:37:29.728Z,13.80
2019-04-29T03:38:29.731Z,14.10
2019-04-29T03:39:29.688Z,13.20
2019-04-29T03:40:29.671Z,12.80
2019-04-29T03:41:29.693Z,12.60
2019-04-29T03:42:29.699Z,13.20
2019-04-29T03:43:29.646Z,12.80
2019-04-29T03:44:29.624Z,13.20
2019-04-29T03:45:29.631Z,12.90
2019-04-29T03:46:29.634Z,13.30
2019-04-29T03:47:29.604Z,14.00
2019-04-29T03:48:29.647Z,13.80
2019-04-29T03:49:29.572Z,13.60
2019-04-29T03:50:29.557Z,14.10
2019-04-29T03:51:29.581Z,14.20
2019-04-29T03:52:29.532Z,13.10
2019-04-29T03:53:29.520Z,13.80
2019-04-29T03:54:29.512Z,13.60
2019-04-29T03:55:39.202Z,14.50
2019-04-29T03:56:30.557Z,13.90
2019-04-29T03:57:29.482Z,13.60
2019-04-29T03:58:29.472Z,13.80
2019-04-29T03:59:29.493Z,13.80
2019-04-29T04:00:29.462Z,13.40
2019-04-29T04:01:29.495Z,13.10
2019-04-29T04:02:29.436Z,14.50
2019-04-29T04:03:29.413Z,14.90
2019-04-29T04:04:29.414Z,14.30
2019-04-29T04:05:29.385Z,14.10
2019-04-29T04:06:29.367Z,13.70
2019-04-29T04:07:29.412Z,13.70
2019-04-29T04:08:29.356Z,13.90
2019-04-29T04:09:29.349Z,14.30
2019-04-29T04:10:29.326Z,13.90
2019-04-29T04:11:29.317Z,14.20
2019-04-29T04:12:29.347Z,14.10
2019-04-29T04:13:29.301Z,15.00
2019-04-29T04:14:29.278Z,13.90
2019-04-29T04:15:29.284Z,14.90
2019-04-29T04:16:29.267Z,14.20
2019-04-29T04:17:29.277Z,14.90
2019-04-29T04:18:29.279Z,14.70
2019-04-29T04:19:29.254Z,15.20
2019-04-29T04:20:29.222Z,15.00
2019-04-29T04:21:29.214Z,15.00
2019-04-29T04:22:29.215Z,15.10
2019-04-29T04:23:29.185Z,15.40
2019-04-29T04:24:29.193Z,15.90
2019-04-29T04:25:29.156Z,15.50
2019-04-29T04:26:29.146Z,15.90
2019-04-29T04:27:29.215Z,15.40
2019-04-29T04:28:29.122Z,16.20
2019-04-29T04:29:29.119Z,15.50
2019-04-29T04:30:29.101Z,15.70
2019-04-29T04:31:29.091Z,15.60
2019-04-29T04:32:29.106Z,15.50
2019-04-29T04:33:29.085Z,15.30
2019-04-29T04:34:29.052Z,15.80
2019-04-29T04:35:29.051Z,16.30
2019-04-29T04:36:29.034Z,15.20
2019-04-29T04:37:29.040Z,15.60
2019-04-29T04:38:29.002Z,16.00
2019-04-29T04:39:28.989Z,16.30
2019-04-29T04:40:29.004Z,15.40
2019-04-29T04:41:28.984Z,16.00
2019-04-29T04:42:30.125Z,15.70
2019-04-29T04:43:28.969Z,16.70
2019-04-29T04:44:28.973Z,15.60
2019-04-29T04:45:28.935Z,16.00
2019-04-29T04:46:28.915Z,16.20
2019-04-29T04:47:28.928Z,16.00
2019-04-29T04:48:28.925Z,16.20
2019-04-29T04:49:28.880Z,16.60
2019-04-29T04:50:28.876Z,15.70
2019-04-29T04:51:28.860Z,16.10
2019-04-29T04:52:28.910Z,16.00
2019-04-29T04:53:28.830Z,15.50
2019-04-29T04:54:31.464Z,18.20
2019-04-29T04:55:28.815Z,15.60
2019-04-29T04:56:28.813Z,17.70
2019-04-29T04:57:28.791Z,16.50
2019-04-29T04:58:28.802Z,16.00
2019-04-29T04:59:29.053Z,17.00
2019-04-29T05:00:28.822Z,15.50
2019-04-29T05:01:28.759Z,15.50
2019-04-29T05:02:28.731Z,16.00
2019-04-29T05:03:28.733Z,15.90
2019-04-29T05:04:28.791Z,15.60
2019-04-29T05:05:28.743Z,15.40
2019-04-29T05:06:28.684Z,15.70
2019-04-29T05:07:28.712Z,17.00
2019-04-29T05:08:28.676Z,15.40
2019-04-29T05:09:28.676Z,16.00
2019-04-29T05:10:28.654Z,16.20
2019-04-29T05:11:28.650Z,15.90
2019-04-29T05:12:28.656Z,15.80
2019-04-29T05:13:28.868Z,16.10
2019-04-29T05:14:28.600Z,16.40
2019-04-29T05:15:28.582Z,16.00
2019-04-29T05:16:28.567Z,17.10
2019-04-29T05:17:28.560Z,15.60
2019-04-29T05:18:28.579Z,15.70
2019-04-29T05:19:28.533Z,17.10
2019-04-29T05:20:28.518Z,16.00
2019-04-29T05:21:28.511Z,16.60
2019-04-29T05:22:28.500Z,15.70
2019-04-29T05:23:28.527Z,15.90
2019-04-29T05:24:28.486Z,16.70
2019-04-29T05:25:28.459Z,16.70
2019-04-29T05:26:28.450Z,16.70
2019-04-29T05:27:28.474Z,16.80
2019-04-29T05:28:28.453Z,16.50
2019-04-29T05:29:28.862Z,17.60
2019-04-29T05:30:28.432Z,17.40
2019-04-29T05:31:28.402Z,17.50
2019-04-29T05:32:28.392Z,16.90
2019-04-29T05:33:28.421Z,16.80
2019-04-29T05:34:28.395Z,16.90
2019-04-29T05:35:28.349Z,16.10
2019-04-29T05:36:28.360Z,15.90
2019-04-29T05:37:28.340Z,16.60
2019-04-29T05:38:28.337Z,16.30
2019-04-29T05:39:28.312Z,17.00
2019-04-29T05:40:28.298Z,16.10
2019-04-29T05:41:30.018Z,16.50
2019-04-29T05:42:29.290Z,16.40
2019-04-29T05:43:32.199Z,15.90
2019-04-29T05:44:29.254Z,15.30
2019-04-29T05:45:28.268Z,16.20
2019-04-29T05:46:28.226Z,16.20
2019-04-29T05:47:28.223Z,16.40
2019-04-29T05:48:32.061Z,16.20
2019-04-29T05:49:28.260Z,16.30
2019-04-29T05:50:28.209Z,17.70
2019-04-29T05:51:28.583Z,17.00
2019-04-29T05:52:30.101Z,16.20
2019-04-29T05:53:28.142Z,17.60
2019-04-29T05:54:31.891Z,16.80
2019-04-29T05:55:29.118Z,16.50
2019-04-29T05:56:28.124Z,15.60
2019-04-29T05:57:28.093Z,15.90
2019-04-29T05:58:28.114Z,15.80
2019-04-29T05:59:28.116Z,16.60
2019-04-29T06:00:28.103Z,15.30
2019-04-29T06:01:28.062Z,16.60
2019-04-29T06:02:33.721Z,18.10
2019-04-29T06:03:29.023Z,17.40
2019-04-29T06:04:28.783Z,16.60
2019-04-29T06:05:28.005Z,16.40
2019-04-29T06:06:28.008Z,16.20
2019-04-29T06:07:27.985Z,15.50
2019-04-29T06:08:28.103Z,16.10
2019-04-29T06:09:27.983Z,16.00
2019-04-29T06:10:27.980Z,16.40
2019-04-29T06:11:28.011Z,16.00
2019-04-29T06:12:27.924Z,17.10
2019-04-29T06:13:27.927Z,16.50
2019-04-29T06:14:27.957Z,16.50
2019-04-29T06:15:27.893Z,18.20
2019-04-29T06:16:27.879Z,17.20
2019-04-29T06:17:27.912Z,17.40
2019-04-29T06:18:27.863Z,17.20
2019-04-29T06:19:27.870Z,18.30
2019-04-29T06:20:27.849Z,18.50
2019-04-29T06:21:27.826Z,17.80
2019-04-29T06:22:27.862Z,17.30
2019-04-29T06:23:27.794Z,17.80
2019-04-29T06:24:27.832Z,16.60
2019-04-29T06:25:27.783Z,16.40
2019-04-29T06:26:27.805Z,16.80
2019-04-29T06:27:27.758Z,16.20
2019-04-29T06:28:28.177Z,15.90
2019-04-29T06:29:27.737Z,16.90
2019-04-29T06:30:27.745Z,15.70
2019-04-29T06:31:27.724Z,15.20
2019-04-29T06:32:27.691Z,16.10
2019-04-29T06:33:28.987Z,15.60
2019-04-29T06:34:27.674Z,16.10
2019-04-29T06:35:27.677Z,15.40
2019-04-29T06:36:27.672Z,15.70
2019-04-29T06:37:27.644Z,15.30
2019-04-29T06:38:27.638Z,13.90
2019-04-29T06:39:27.609Z,14.80
2019-04-29T06:40:30.579Z,14.20
2019-04-29T06:41:28.596Z,14.70
2019-04-29T06:42:27.597Z,14.60
2019-04-29T06:43:28.850Z,14.10
2019-04-29T06:44:27.553Z,14.50
2019-04-29T06:45:27.575Z,13.90
2019-04-29T06:46:27.569Z,13.10
2019-04-29T06:47:27.521Z,14.30
2019-04-29T06:48:27.547Z,13.70
2019-04-29T06:49:27.527Z,14.30
2019-04-29T06:50:27.550Z,14.70
2019-04-29T06:51:27.480Z,14.10
2019-04-29T06:52:27.473Z,13.20
2019-04-29T06:53:27.572Z,13.40
2019-04-29T06:54:27.493Z,13.60
2019-04-29T06:55:27.456Z,13.60
2019-04-29T06:56:27.455Z,13.80
2019-04-29T06:57:27.421Z,13.30
2019-04-29T06:58:27.419Z,12.90
2019-04-29T06:59:27.404Z,13.30
2019-04-29T07:00:27.379Z,12.60
2019-04-29T07:01:27.397Z,13.50
2019-04-29T07:02:27.352Z,13.30
2019-04-29T07:03:27.356Z,13.50
2019-04-29T07:04:30.622Z,12.90
2019-04-29T07:05:28.312Z,12.40
2019-04-29T07:06:27.378Z,12.70
2019-04-29T07:07:27.294Z,12.40
2019-04-29T07:08:27.338Z,11.50
2019-04-29T07:09:27.274Z,11.00
2019-04-29T07:10:27.382Z,12.10
2019-04-29T07:11:27.258Z,11.70
2019-04-29T07:12:27.276Z,12.00
2019-04-29T07:13:27.228Z,12.30
2019-04-29T07:14:28.407Z,12.10
2019-04-29T07:15:28.243Z,11.90
2019-04-29T07:16:31.641Z,12.80
2019-04-29T07:17:27.218Z,11.80
2019-04-29T07:18:27.174Z,11.10
2019-04-29T07:19:28.301Z,12.80
2019-04-29T07:20:27.147Z,11.20
2019-04-29T07:21:27.153Z,11.90
2019-04-29T07:22:31.048Z,11.90
2019-04-29T07:23:27.110Z,11.70
2019-04-29T07:24:27.143Z,12.20
2019-04-29T07:25:28.792Z,11.40
2019-04-29T07:26:27.079Z,11.60
2019-04-29T07:27:27.100Z,10.90
2019-04-29T07:28:27.058Z,11.30
2019-04-29T07:29:30.529Z,9.30
2019-04-29T07:30:29.401Z,9.60
2019-04-29T07:31:28.449Z,9.00
2019-04-29T07:32:28.044Z,9.10
2019-04-29T07:33:27.017Z,9.00
2019-04-29T07:34:28.843Z,8.90
2019-04-29T07:35:27.977Z,9.50
2019-04-29T07:36:26.970Z,9.50
2019-04-29T07:37:29.822Z,10.00
2019-04-29T07:38:40.537Z,10.80
2019-04-29T07:39:31.643Z,9.30
2019-04-29T07:40:27.936Z,9.50
2019-04-29T07:41:26.909Z,9.10
2019-04-29T07:42:32.310Z,9.10
2019-04-29T07:43:27.914Z,9.80
2019-04-29T07:44:32.858Z,9.40
2019-04-29T07:45:29.073Z,9.70
2019-04-29T07:46:26.845Z,9.90
2019-04-29T07:47:29.434Z,10.10
2019-04-29T07:48:26.850Z,10.20
2019-04-29T07:49:26.817Z,10.00
2019-04-29T07:50:28.514Z,9.40
2019-04-29T07:51:26.784Z,10.40
2019-04-29T07:52:26.781Z,10.00
2019-04-29T07:53:34.320Z,11.10
2019-04-29T07:54:27.764Z,10.90
2019-04-29T07:55:30.986Z,11.10
2019-04-29T07:56:27.738Z,11.10
2019-04-29T07:57:26.723Z,11.10
2019-04-29T07:58:27.247Z,12.00
2019-04-29T07:59:26.726Z,12.00
2019-04-29T08:00:26.690Z,12.40
2019-04-29T08:01:26.679Z,13.70
2019-04-29T08:02:27.150Z,12.90
2019-04-29T08:03:26.691Z,12.80
2019-04-29T08:04:26.653Z,12.40
2019-04-29T08:05:26.635Z,11.90
2019-04-29T08:06:26.678Z,11.90
2019-04-29T08:07:26.632Z,12.40
2019-04-29T08:08:26.640Z,12.50
2019-04-29T08:09:26.586Z,12.60
2019-04-29T08:10:28.521Z,12.80
2019-04-29T08:11:26.570Z,12.90
2019-04-29T08:12:26.572Z,13.30
2019-04-29T08:13:26.564Z,13.60
2019-04-29T08:14:26.528Z,13.40
2019-04-29T08:15:26.710Z,13.80
2019-04-29T08:16:26.509Z,13.20
2019-04-29T08:17:26.513Z,14.20
2019-04-29T08:18:26.525Z,13.30
2019-04-29T08:19:29.520Z,14.00
2019-04-29T08:20:26.461Z,15.90
2019-04-29T08:21:26.447Z,14.90
2019-04-29T08:22:27.767Z,16.20
2019-04-29T08:23:26.450Z,15.10
2019-04-29T08:24:26.412Z,16.10
2019-04-29T08:25:27.214Z,15.60
2019-04-29T08:26:26.399Z,15.80
2019-04-29T08:27:39.325Z,15.00
2019-04-29T08:28:27.435Z,15.30
2019-04-29T08:29:26.356Z,14.80
2019-04-29T08:30:26.347Z,14.20
2019-04-29T08:31:26.356Z,14.70
2019-04-29T08:32:26.318Z,14.90
2019-04-29T08:33:26.361Z,15.90
2019-04-29T08:34:26.321Z,15.90
2019-04-29T08:35:27.060Z,15.30
2019-04-29T08:36:26.287Z,15.80
2019-04-29T08:37:26.268Z,15.00
2019-04-29T08:38:26.275Z,15.40
2019-04-29T08:39:29.295Z,14.50
2019-04-29T08:40:26.299Z,18.40
2019-04-29T08:41:29.580Z,16.60
2019-04-29T08:42:26.278Z,15.80
2019-04-29T08:43:26.223Z,16.10
2019-04-29T08:44:26.200Z,15.00
2019-04-29T08:45:26.185Z,15.10
2019-04-29T08:46:26.162Z,15.40
2019-04-29T08:47:30.454Z,14.80
2019-04-29T08:48:27.205Z,15.70
2019-04-29T08:49:26.131Z,14.90
2019-04-29T08:50:26.140Z,15.30
2019-04-29T08:51:27.075Z,16.80
2019-04-29T08:52:26.102Z,16.70
2019-04-29T08:53:26.119Z,16.30
2019-04-29T08:54:26.085Z,16.70
2019-04-29T08:55:26.670Z,15.70
2019-04-29T08:56:33.243Z,15.80
2019-04-29T08:57:26.588Z,16.00
2019-04-29T08:58:26.029Z,15.50
2019-04-29T08:59:33.136Z,16.40
2019-04-29T09:00:33.167Z,15.70
2019-04-29T09:01:33.999Z,16.30
2019-04-29T09:02:35.457Z,15.80
2019-04-29T09:03:40.403Z,17.00
2019-04-29T09:05:36.210Z,16.10
2019-04-29T09:06:44.882Z,16.80
2019-04-29T09:07:43.865Z,15.60
2019-04-29T09:08:55.021Z,16.60
2019-04-29T09:11:43.576Z,15.70
2019-04-29T09:12:42.377Z,15.90
2019-04-29T09:13:42.365Z,15.30
2019-04-29T09:14:49.679Z,16.00
2019-04-29T09:15:49.535Z,16.20
2019-04-29T09:16:42.352Z,15.10
2019-04-29T09:17:49.673Z,15.90
2019-04-29T09:18:49.569Z,15.20
2019-04-29T09:19:42.383Z,16.80
2019-04-29T09:20:42.300Z,15.40
2019-04-29T09:21:42.281Z,15.00
2019-04-29T09:22:42.289Z,15.70
2019-04-29T09:23:42.259Z,14.50
2019-04-29T09:24:43.684Z,15.40
2019-04-29T09:25:43.231Z,15.20
2019-04-29T09:26:42.242Z,16.10
2019-04-29T09:27:45.018Z,15.50
2019-04-29T09:28:42.235Z,15.50
2019-04-29T09:29:49.798Z,15.30
2019-04-29T09:30:42.177Z,14.90
2019-04-29T09:31:42.194Z,14.90
2019-04-29T09:32:49.767Z,15.50
2019-04-29T09:33:44.072Z,14.60
2019-04-29T09:35:53.008Z,14.60
2019-04-29T09:38:01.816Z,15.20
2019-04-29T09:39:01.802Z,15.50
2019-04-29T09:40:01.828Z,15.40
2019-04-29T09:41:01.790Z,16.30
2019-04-29T09:42:03.360Z,16.30
2019-04-29T09:43:14.601Z,16.00
2019-04-29T09:44:04.027Z,16.20
2019-04-29T09:45:01.757Z,15.90
2019-04-29T09:46:01.738Z,15.40
2019-04-29T09:47:04.149Z,15.90
2019-04-29T09:48:02.706Z,15.70
2019-04-29T09:49:01.704Z,16.10
2019-04-29T09:50:01.718Z,16.20
2019-04-29T09:51:01.669Z,16.20
2019-04-29T09:52:01.668Z,15.90
2019-04-29T09:53:01.767Z,16.00
2019-04-29T09:54:01.642Z,15.70
2019-04-29T09:55:03.984Z,15.70
2019-04-29T09:56:01.615Z,15.40
2019-04-29T09:57:01.690Z,15.90
2019-04-29T09:58:01.600Z,15.80
2019-04-29T09:59:08.483Z,16.00
2019-04-29T10:00:05.153Z,15.70
2019-04-29T10:01:02.588Z,15.20
2019-04-29T10:02:01.567Z,16.60
2019-04-29T10:03:02.884Z,16.90
2019-04-29T10:04:01.550Z,16.20
2019-04-29T10:05:01.523Z,15.70
2019-04-29T10:06:01.538Z,14.20
2019-04-29T10:07:01.490Z,15.80
2019-04-29T10:08:01.532Z,15.50
2019-04-29T10:09:01.490Z,14.70
2019-04-29T10:10:02.358Z,15.60
2019-04-29T10:11:02.498Z,15.70
2019-04-29T10:12:01.444Z,15.50
2019-04-29T10:13:01.425Z,15.50
2019-04-29T10:14:01.512Z,15.20
2019-04-29T10:15:01.446Z,14.80
2019-04-29T10:16:02.115Z,15.60
2019-04-29T10:17:01.948Z,14.60
2019-04-29T10:18:01.571Z,15.30
2019-04-29T10:19:05.164Z,14.80
2019-04-29T10:20:01.363Z,14.60
2019-04-29T10:21:01.365Z,14.90
2019-04-29T10:22:01.391Z,15.20
2019-04-29T10:23:01.316Z,14.60
2019-04-29T10:24:01.310Z,15.10
2019-04-29T10:25:01.328Z,15.00
2019-04-29T10:26:01.314Z,15.10
2019-04-29T10:27:01.296Z,15.60
2019-04-29T10:28:01.276Z,16.10
2019-04-29T10:29:01.330Z,15.30
2019-04-29T10:30:01.242Z,14.90
2019-04-29T10:31:01.242Z,15.00
2019-04-29T10:32:02.465Z,15.00
2019-04-29T10:33:02.258Z,15.40
2019-04-29T10:34:01.190Z,15.10
2019-04-29T10:35:03.792Z,14.20
2019-04-29T10:36:02.187Z,14.90
2019-04-29T10:37:01.181Z,15.60
2019-04-29T10:38:02.905Z,14.90
2019-04-29T10:39:01.147Z,14.50
2019-04-29T10:40:10.898Z,14.70
2019-04-29T10:41:02.314Z,14.50
2019-04-29T10:42:01.147Z,14.50
2019-04-29T10:43:01.094Z,14.30
2019-04-29T10:44:01.089Z,14.60
2019-04-29T10:45:01.185Z,14.60
2019-04-29T10:46:01.108Z,13.80
2019-04-29T10:47:01.065Z,15.30
2019-04-29T10:48:01.044Z,13.80
2019-04-29T10:49:03.644Z,14.10
2019-04-29T10:50:01.059Z,13.20
2019-04-29T10:51:01.033Z,13.40
2019-04-29T10:52:02.915Z,13.50
2019-04-29T10:53:00.987Z,14.20
2019-04-29T10:54:00.985Z,13.60
2019-04-29T10:55:00.963Z,14.10
2019-04-29T10:56:05.544Z,13.80
2019-04-29T10:57:01.967Z,13.20
2019-04-29T10:58:00.929Z,13.70
2019-04-29T10:59:04.642Z,13.40
2019-04-29T11:00:01.919Z,13.40
2019-04-29T11:01:00.918Z,13.70
2019-04-29T11:02:03.642Z,13.50
2019-04-29T11:03:01.877Z,13.20
2019-04-29T11:04:02.686Z,13.80
2019-04-29T11:05:02.767Z,13.50
2019-04-29T11:06:02.034Z,13.90
2019-04-29T11:07:13.590Z,13.70
2019-04-29T11:08:02.628Z,13.70
2019-04-29T11:09:00.808Z,14.10
2019-04-29T11:10:00.813Z,14.30
2019-04-29T11:11:02.660Z,15.00
2019-04-29T11:12:00.820Z,14.40
2019-04-29T11:13:00.787Z,14.10
2019-04-29T11:14:01.473Z,14.50
2019-04-29T11:15:01.701Z,14.10
2019-04-29T11:16:00.738Z,14.50
2019-04-29T11:17:00.726Z,14.00
2019-04-29T11:18:03.505Z,14.00
2019-04-29T11:19:05.098Z,14.20
2019-04-29T11:20:01.684Z,13.90
2019-04-29T11:21:00.669Z,14.40
2019-04-29T11:22:02.247Z,14.10
2019-04-29T11:23:00.665Z,14.00
2019-04-29T11:24:00.637Z,13.80
2019-04-29T11:25:00.719Z,13.60
2019-04-29T11:26:00.624Z,13.70
2019-04-29T11:27:11.566Z,13.00
2019-04-29T11:28:01.640Z,13.90
2019-04-29T11:29:00.585Z,13.40
2019-04-29T11:30:03.095Z,12.90
2019-04-29T11:31:00.658Z,12.60
2019-04-29T11:32:00.552Z,12.80
2019-04-29T11:33:04.648Z,13.00
2019-04-29T11:34:01.527Z,12.80
2019-04-29T11:35:00.516Z,12.20
2019-04-29T11:36:03.968Z,13.50
2019-04-29T11:37:01.498Z,13.20
2019-04-29T11:38:00.566Z,12.80
2019-04-29T11:39:00.485Z,12.70
2019-04-29T11:40:00.478Z,13.40
2019-04-29T11:41:00.482Z,12.70
2019-04-29T11:42:01.633Z,12.90
2019-04-29T11:43:00.451Z,12.60
2019-04-29T11:44:00.422Z,13.30
2019-04-29T11:45:02.207Z,12.90
2019-04-29T11:46:00.418Z,12.40
2019-04-29T11:47:00.441Z,12.30
2019-04-29T11:48:00.396Z,12.90
2019-04-29T11:49:00.367Z,13.90
2019-04-29T11:50:00.409Z,12.60
2019-04-29T11:51:00.342Z,13.20
2019-04-29T11:52:09.519Z,12.70
2019-04-29T11:53:01.341Z,12.80
2019-04-29T11:54:00.308Z,12.40
2019-04-29T11:55:00.295Z,12.30
2019-04-29T11:56:00.295Z,12.60
2019-04-29T11:57:00.304Z,12.80
2019-04-29T11:58:00.271Z,12.20
2019-04-29T11:59:00.295Z,12.20
2019-04-29T12:00:00.236Z,12.10
2019-04-29T12:01:03.989Z,12.60
2019-04-29T12:02:01.267Z,12.50
2019-04-29T12:03:00.237Z,12.40
2019-04-29T12:04:00.192Z,12.70
2019-04-29T12:05:04.267Z,12.50
2019-04-29T12:06:01.197Z,12.50
2019-04-29T12:07:00.166Z,13.10
2019-04-29T12:08:03.107Z,12.30
2019-04-29T12:09:01.219Z,12.40
2019-04-29T12:10:02.203Z,13.10
2019-04-29T12:11:07.084Z,12.50
2019-04-29T12:12:01.110Z,12.30
2019-04-29T12:13:00.123Z,12.50
2019-04-29T12:14:03.040Z,12.50
2019-04-29T12:15:00.063Z,13.40
2019-04-29T12:16:00.054Z,12.20
2019-04-29T12:17:00.039Z,12.70
2019-04-29T12:18:00.056Z,12.60
2019-04-29T12:19:00.019Z,12.20
2019-04-29T12:20:00.004Z,12.50
2019-04-29T12:20:59.999Z,12.20
2019-04-29T12:22:04.903Z,13.00
2019-04-29T12:23:01.021Z,12.50
2019-04-29T12:23:59.976Z,12.40
2019-04-29T12:25:00.009Z,12.70
2019-04-29T12:26:03.058Z,12.60
2019-04-29T12:26:59.991Z,13.20
2019-04-29T12:28:01.972Z,12.20
2019-04-29T12:28:59.929Z,13.00
2019-04-29T12:29:59.985Z,12.70
2019-04-29T12:30:59.884Z,12.40
2019-04-29T12:31:59.873Z,12.30
2019-04-29T12:33:01.636Z,12.00
2019-04-29T12:33:59.913Z,12.80
2019-04-29T12:34:59.860Z,12.40
2019-04-29T12:36:03.404Z,12.70
2019-04-29T12:37:00.438Z,12.10
2019-04-29T12:38:00.615Z,12.10
2019-04-29T12:39:00.869Z,12.00
2019-04-29T12:39:59.801Z,12.30
2019-04-29T12:40:59.779Z,12.40
2019-04-29T12:42:00.620Z,12.90
2019-04-29T12:42:59.741Z,12.00
2019-04-29T12:43:59.916Z,11.70
2019-04-29T12:44:59.750Z,11.20
2019-04-29T12:45:59.735Z,11.50
2019-04-29T12:46:59.735Z,12.80
2019-04-29T12:47:59.734Z,11.60
2019-04-29T12:49:03.458Z,11.10
2019-04-29T12:50:00.675Z,12.40
2019-04-29T12:50:59.665Z,11.70
2019-04-29T12:51:59.660Z,11.70
2019-04-29T12:52:59.653Z,11.20
2019-04-29T12:53:59.671Z,12.10
2019-04-29T12:55:07.058Z,12.50
2019-04-29T12:56:00.623Z,11.30
2019-04-29T12:56:59.602Z,11.40
2019-04-29T12:57:59.592Z,11.80
2019-04-29T12:59:01.697Z,11.60
2019-04-29T12:59:59.555Z,11.60
2019-04-29T13:01:01.088Z,11.50
2019-04-29T13:02:00.466Z,10.80
2019-04-29T13:03:01.530Z,11.00
2019-04-29T13:03:59.540Z,10.60